Nibulon 1 — UUAS4 — position and weather

sailwx.info

Track history (hours):
 
Tides and Currents Weather Stations Pressure Air Temp Water Temp Dewpoint Dewpoint Depression Visibility Wind Speed Wind Dir Waves Ship Positions

Nibulon 1

Last reported at 2017-Apr-24 00:10 UTC. Time now 2017-Apr-24 03:36 UTC.
Position N 46°37' E 031°35'.

Length 38 m; draft 2.6 m.

Type: Tug. MMSI: 272641000.

Date/timePositionNaut miles runAvg speedWind from/ knotsBaromVisibWave heightAir tempDewpointWater temp
2017-Apr-24 00:10N 46°37' E 031°35'0 0.2
2017-Apr-24 00:00N 46°37' E 031°35'1 1.9
2017-Apr-23 23:28N 46°36' E 031°36'1 3.2
2017-Apr-23 23:00N 46°35' E 031°38'2 3.5
2017-Apr-23 22:29N 46°35' E 031°41'2 3.6
2017-Apr-23 21:59N 46°35' E 031°43'2 3.6
2017-Apr-23 21:29N 46°36' E 031°46'2 3.6
2017-Apr-23 20:58N 46°35' E 031°49'2 3.6
2017-Apr-23 20:30N 46°35' E 031°51'2 3.7
2017-Apr-23 20:00N 46°34' E 031°54'2 3.6
2017-Apr-23 19:30N 46°34' E 031°56'2 3.6
2017-Apr-23 19:00N 46°33' E 031°59'2 3.6
2017-Apr-23 18:30N 46°33' E 032°01'2 3.5
2017-Apr-23 18:00N 46°32' E 032°04'126 2.8
2017-Apr-21 20:32N 47°31' E 034°47'0 3.4
2017-Apr-21 20:29N 47°31' E 034°47'2 3.5
2017-Apr-21 20:00N 47°32' E 034°50'7 3.7
2017-Apr-21 18:00N 47°34' E 035°00'2 3.7
2017-Apr-21 17:30N 47°35' E 035°02'2 3.8
2017-Apr-21 17:00N 47°37' E 035°03'2 4.0
2017-Apr-21 16:30N 47°38' E 035°05'2 4.1
2017-Apr-21 16:00N 47°40' E 035°07'2 4.0
2017-Apr-21 15:30N 47°42' E 035°08'2 3.7
2017-Apr-21 15:00N 47°43' E 035°09'2 3.5
2017-Apr-21 14:30N 47°45' E 035°10'3 3.0
2017-Apr-21 13:27N 47°48' E 035°10'0 0.3
2017-Apr-21 12:57N 47°48' E 035°10'0 0.0
2017-Apr-21 12:30N 47°48' E 035°10'0 0.0
2017-Apr-21 12:00N 47°48' E 035°10'0 0.0
2017-Apr-21 11:30N 47°48' E 035°10'0 0.4
2017-Apr-21 11:00N 47°48' E 035°09'1 2.6
2017-Apr-21 10:30N 47°49' E 035°08'3 5.1
2017-Apr-21 10:00N 47°51' E 035°05'1 2.3
2017-Apr-21 09:30N 47°52' E 035°05'0 0.1
2017-Apr-21 09:00N 47°52' E 035°06'0 0.4
2017-Apr-21 08:30N 47°52' E 035°06'1 1.6
2017-Apr-21 08:00N 47°53' E 035°06'0 0.0
2017-Apr-21 07:30N 47°53' E 035°06'0 0.0
2017-Apr-21 07:00N 47°53' E 035°06'0 0.0
2017-Apr-21 06:30N 47°53' E 035°06'1 2.0
2017-Apr-21 06:00N 47°52' E 035°06'1 1.6
2017-Apr-21 05:30N 47°51' E 035°05'4 8.0
2017-Apr-21 05:00N 47°48' E 035°09'2 3.4
2017-Apr-21 04:30N 47°49' E 035°07'2 4.7
2017-Apr-21 04:00N 47°51' E 035°05'1 1.5
2017-Apr-21 03:31N 47°52' E 035°06'0 0.4
2017-Apr-21 02:58N 47°52' E 035°06'1 1.4
2017-Apr-21 02:25N 47°53' E 035°06'0 0.0
2017-Apr-21 01:55N 47°53' E 035°06'0 0.0
2017-Apr-21 01:19N 47°53' E 035°06'0 0.0
2017-Apr-21 00:49N 47°53' E 035°06'0 0.0
2017-Apr-21 00:25N 47°53' E 035°06'0 0.0
2017-Apr-20 23:55N 47°53' E 035°06'0 0.0
2017-Apr-20 23:25N 47°53' E 035°06'0 0.0
2017-Apr-20 22:49N 47°53' E 035°06'0 0.0
2017-Apr-20 22:25N 47°53' E 035°06'0 0.0
2017-Apr-20 21:55N 47°53' E 035°06'0 0.0
2017-Apr-20 21:25N 47°53' E 035°06'0 0.0
2017-Apr-20 20:55N 47°53' E 035°06'0 0.0
2017-Apr-20 20:07N 47°53' E 035°06'0 0.0
2017-Apr-20 19:55N 47°53' E 035°06'0 0.0
2017-Apr-20 19:13N 47°53' E 035°06'0 0.0
2017-Apr-20 18:49N 47°53' E 035°06'0 0.0
2017-Apr-20 18:25N 47°53' E 035°06'0 0.0
2017-Apr-20 17:55N 47°53' E 035°06'0 0.0
2017-Apr-20 17:25N 47°53' E 035°06'0 0.0
2017-Apr-20 16:55N 47°53' E 035°06'0 0.0
2017-Apr-20 16:25N 47°53' E 035°06'0 0.0
2017-Apr-20 15:55N 47°53' E 035°06'0 0.0
2017-Apr-20 15:25N 47°53' E 035°06'1 1.7
2017-Apr-20 15:01N 47°52' E 035°06'1 1.4
2017-Apr-20 14:30N 47°53' E 035°06'3 2.6
2017-Apr-20 13:30N 47°55' E 035°07'2 3.7
2017-Apr-20 13:00N 47°57' E 035°07'2 3.7
2017-Apr-20 12:30N 47°59' E 035°07'2 3.7
2017-Apr-20 12:00N 48°01' E 035°08'2 3.3
2017-Apr-20 11:30N 48°02' E 035°07'2 0.0
2017-Apr-18 17:45N 48°04' E 035°05'1 4.7
2017-Apr-18 17:30N 48°03' E 035°07'2 4.5
2017-Apr-18 17:00N 48°01' E 035°08'2 4.8
2017-Apr-18 16:30N 47°58' E 035°08'2 4.9
2017-Apr-18 16:01N 47°56' E 035°07'3 5.1
2017-Apr-18 15:30N 47°53' E 035°06'1 1.2
2017-Apr-18 15:00N 47°53' E 035°06'0 0.1
2017-Apr-18 14:31N 47°53' E 035°06'1 1.0
2017-Apr-18 13:30N 47°52' E 035°05'0 0.5
2017-Apr-18 13:00N 47°52' E 035°05'3 5.4
2017-Apr-18 12:30N 47°49' E 035°08'1 3.0
2017-Apr-18 12:00N 47°48' E 035°09'4 7.3
2017-Apr-18 11:30N 47°51' E 035°05'1 2.0
2017-Apr-18 11:00N 47°52' E 035°05'1 1.4
2017-Apr-18 10:30N 47°52' E 035°06'1 1.2
2017-Apr-18 09:55N 47°52' E 035°05'0 0.5
2017-Apr-18 09:30N 47°52' E 035°05'2 4.4
2017-Apr-18 09:00N 47°50' E 035°07'2 4.0
2017-Apr-18 08:29N 47°48' E 035°09'0 0.0
2017-Apr-18 07:59N 47°48' E 035°09'0 0.0
2017-Apr-18 07:29N 47°48' E 035°09'0 0.0
2017-Apr-18 06:59N 47°48' E 035°09'0 0.0
2017-Apr-18 06:29N 47°48' E 035°09'0 0.0
2017-Apr-18 05:59N 47°48' E 035°09'0 0.0
2017-Apr-18 05:23N 47°48' E 035°09'0 0.0
2017-Apr-18 04:53N 47°48' E 035°09'0 0.0
2017-Apr-18 04:29N 47°48' E 035°09'0 0.0
2017-Apr-18 03:59N 47°48' E 035°09'0 0.0
2017-Apr-18 03:29N 47°48' E 035°09'0 0.0
2017-Apr-18 02:59N 47°48' E 035°09'0 0.1
2017-Apr-18 02:31N 47°48' E 035°09'0 0.5
2017-Apr-18 01:57N 47°48' E 035°10'0 0.0
2017-Apr-18 01:27N 47°48' E 035°10'0 0.0
2017-Apr-18 00:57N 47°48' E 035°10'0 0.0
2017-Apr-18 00:27N 47°48' E 035°10'0 0.0
2017-Apr-17 23:57N 47°48' E 035°10'0 0.0
2017-Apr-17 23:27N 47°48' E 035°10'0 0.0
2017-Apr-17 22:57N 47°48' E 035°10'0 0.0
2017-Apr-17 22:27N 47°48' E 035°10'0 0.0
2017-Apr-17 21:57N 47°48' E 035°10'0 0.0
2017-Apr-17 21:27N 47°48' E 035°10'0 0.0
2017-Apr-17 20:57N 47°48' E 035°10'0 0.0
2017-Apr-17 20:27N 47°48' E 035°10'0 0.0
2017-Apr-17 19:57N 47°48' E 035°10'0 0.0
2017-Apr-17 19:27N 47°48' E 035°10'0 0.0
2017-Apr-17 18:57N 47°48' E 035°10'0 0.0
2017-Apr-17 18:27N 47°48' E 035°10'0 0.0
2017-Apr-17 17:57N 47°48' E 035°10'0 0.0
2017-Apr-17 17:27N 47°48' E 035°10'0 0.0
2017-Apr-17 16:57N 47°48' E 035°10'0 0.0
2017-Apr-17 16:27N 47°48' E 035°10'0 0.5
2017-Apr-17 15:55N 47°48' E 035°09'0 0.0
2017-Apr-17 15:25N 47°48' E 035°09'0 0.0
2017-Apr-17 14:55N 47°48' E 035°09'0 0.1
2017-Apr-17 14:25N 47°48' E 035°09'1 1.0
2017-Apr-17 13:30N 47°48' E 035°10'2 4.7
2017-Apr-17 13:00N 47°45' E 035°10'2 4.6
2017-Apr-17 12:30N 47°43' E 035°09'2 4.8
2017-Apr-17 12:00N 47°41' E 035°08'2 4.9
2017-Apr-17 11:30N 47°39' E 035°06'3 5.0
2017-Apr-17 11:01N 47°37' E 035°03'3 5.1
2017-Apr-17 10:30N 47°35' E 035°02'7 5.0
2017-Apr-17 09:07N 47°33' E 034°52'1 5.0
2017-Apr-17 09:00N 47°32' E 034°51'3 5.1
2017-Apr-17 08:30N 47°31' E 034°48'11 5.0
2017-Apr-17 06:18N 47°35' E 034°32'2 5.1
2017-Apr-17 06:00N 47°35' E 034°30'3 5.1
2017-Apr-17 05:24N 47°33' E 034°26'5 4.8
2017-Apr-17 04:18N 47°32' E 034°18'97 4.0
2017-Apr-16 04:10N 46°33' E 032°25'1 4.8
2017-Apr-16 04:00N 46°33' E 032°24'4 4.4
2017-Apr-16 03:10N 46°33' E 032°18'4 4.4
2017-Apr-16 02:12N 46°33' E 032°12'3 4.7
2017-Apr-16 01:36N 46°32' E 032°08'1 4.0
2017-Apr-16 01:21N 46°32' E 032°07'1 2.6
2017-Apr-16 00:58N 46°32' E 032°05'2 3.6
2017-Apr-16 00:27N 46°32' E 032°03'2 4.7
2017-Apr-16 00:00N 46°33' E 031°60'2 4.7
2017-Apr-15 23:30N 46°34' E 031°56'2 4.7
2017-Apr-15 23:00N 46°34' E 031°53'3 5.0
2017-Apr-15 22:26N 46°35' E 031°49'2 5.1
2017-Apr-15 22:00N 46°35' E 031°46'3 5.4
2017-Apr-15 21:29N 46°35' E 031°42'4 5.5
2017-Apr-15 20:49N 46°36' E 031°37'1 4.4
2017-Apr-15 20:31N 46°36' E 031°35'0 0.1
2017-Apr-15 20:00N 46°37' E 031°35'0 0.8
2017-Apr-15 19:30N 46°36' E 031°36'1 1.3
2017-Apr-15 19:00N 46°36' E 031°35'2 4.4
2017-Apr-15 18:31N 46°35' E 031°32'3 5.6
2017-Apr-15 18:00N 46°36' E 031°29'3 6.4
2017-Apr-15 17:30N 46°35' E 031°24'6 0.4
2017-Apr-15 02:21N 46°35' E 031°32'3 4.3
2017-Apr-15 01:43N 46°37' E 031°35'5 3.2
2017-Apr-15 00:15N 46°35' E 031°42'1 4.1
2017-Apr-14 23:59N 46°35' E 031°43'2 4.0
2017-Apr-14 23:29N 46°36' E 031°46'2 3.9
2017-Apr-14 23:00N 46°36' E 031°49'2 3.8
2017-Apr-14 22:30N 46°37' E 031°51'2 3.6
2017-Apr-14 22:00N 46°37' E 031°54'2 3.5
2017-Apr-14 21:30N 46°39' E 031°55'2 3.4
2017-Apr-14 21:01N 46°40' E 031°56'2 3.7
2017-Apr-14 20:30N 46°42' E 031°56'2 3.3
2017-Apr-14 20:00N 46°44' E 031°56'2 3.5
2017-Apr-14 19:30N 46°45' E 031°54'2 3.6
2017-Apr-14 19:00N 46°47' E 031°53'2 3.6
2017-Apr-14 18:30N 46°48' E 031°54'2 3.6
2017-Apr-14 18:00N 46°50' E 031°55'2 3.7
2017-Apr-14 17:30N 46°51' E 031°57'2 3.6
2017-Apr-14 17:00N 46°53' E 031°59'2 3.7
2017-Apr-14 16:30N 46°54' E 032°00'2 3.5
2017-Apr-14 16:00N 46°56' E 032°01'2 3.6
2017-Apr-14 15:30N 46°57' E 031°59'0 0.1
2017-Apr-14 14:58N 46°57' E 031°59'0 0.0
2017-Apr-14 14:28N 46°57' E 031°59'0 0.2
2017-Apr-14 13:28N 46°57' E 031°59'0 0.0
2017-Apr-14 12:58N 46°57' E 031°59'0 0.0
2017-Apr-14 12:28N 46°57' E 031°59'0 0.0
2017-Apr-14 11:58N 46°57' E 031°59'0 0.0
2017-Apr-14 11:28N 46°57' E 031°59'0 0.0
2017-Apr-14 10:58N 46°57' E 031°59'0 0.0
2017-Apr-14 10:28N 46°57' E 031°59'0 0.0
2017-Apr-14 09:55N 46°57' E 031°59'0 0.0
2017-Apr-14 09:28N 46°57' E 031°59'0 0.0
2017-Apr-14 09:01N 46°57' E 031°59'0 0.0
2017-Apr-14 08:31N 46°57' E 031°59'0 0.4
2017-Apr-14 08:01N 46°56' E 031°59'2 3.7
2017-Apr-14 07:30N 46°55' E 032°01'3 5.5
2017-Apr-14 07:01N 46°53' E 031°60'3 5.7
2017-Apr-14 06:31N 46°51' E 031°57'3 5.8
2017-Apr-14 06:00N 46°49' E 031°54'3 5.5
2017-Apr-14 05:31N 46°46' E 031°53'3 5.2
2017-Apr-14 05:01N 46°44' E 031°56'2 4.8
2017-Apr-14 04:30N 46°41' E 031°56'2 4.9
2017-Apr-14 04:00N 46°39' E 031°56'3 5.2
2017-Apr-14 03:31N 46°37' E 031°53'3 5.3
2017-Apr-14 03:00N 46°36' E 031°50'3 5.0
2017-Apr-14 02:28N 46°36' E 031°46'2 5.0
2017-Apr-14 01:59N 46°35' E 031°42'2 4.9
2017-Apr-14 01:29N 46°35' E 031°39'2 4.2
2017-Apr-14 00:55N 46°36' E 031°36'0 0.1
2017-Apr-14 00:15N 46°36' E 031°36'  
Track history (hours):
 
Tides and Currents Weather Stations Pressure Air Temp Water Temp Dewpoint Dewpoint Depression Visibility Wind Speed Wind Dir Waves Ship Positions

Nibulon 1

Last reported at 2017-Apr-24 00:10 UTC. Time now 2017-Apr-24 03:36 UTC.
Position N 46°37' E 031°35'.

Length 38 m; draft 2.6 m.

Type: Tug. MMSI: 272641000.

Date/timePositionNaut miles runAvg speedWind from/ knotsBaromVisibWave heightAir tempDewpointWater temp
2017-Apr-24 00:10N 46°37' E 031°35'0 0.2
2017-Apr-24 00:00N 46°37' E 031°35'1 1.9
2017-Apr-23 23:28N 46°36' E 031°36'1 3.2
2017-Apr-23 23:00N 46°35' E 031°38'2 3.5
2017-Apr-23 22:29N 46°35' E 031°41'2 3.6
2017-Apr-23 21:59N 46°35' E 031°43'2 3.6
2017-Apr-23 21:29N 46°36' E 031°46'2 3.6
2017-Apr-23 20:58N 46°35' E 031°49'2 3.6
2017-Apr-23 20:30N 46°35' E 031°51'2 3.7
2017-Apr-23 20:00N 46°34' E 031°54'2 3.6
2017-Apr-23 19:30N 46°34' E 031°56'2 3.6
2017-Apr-23 19:00N 46°33' E 031°59'2 3.6
2017-Apr-23 18:30N 46°33' E 032°01'2 3.5
2017-Apr-23 18:00N 46°32' E 032°04'126 2.8
2017-Apr-21 20:32N 47°31' E 034°47'0 3.4
2017-Apr-21 20:29N 47°31' E 034°47'2 3.5
2017-Apr-21 20:00N 47°32' E 034°50'7 3.7
2017-Apr-21 18:00N 47°34' E 035°00'2 3.7
2017-Apr-21 17:30N 47°35' E 035°02'2 3.8
2017-Apr-21 17:00N 47°37' E 035°03'2 4.0
2017-Apr-21 16:30N 47°38' E 035°05'2 4.1
2017-Apr-21 16:00N 47°40' E 035°07'2 4.0
2017-Apr-21 15:30N 47°42' E 035°08'2 3.7
2017-Apr-21 15:00N 47°43' E 035°09'2 3.5
2017-Apr-21 14:30N 47°45' E 035°10'3 3.0
2017-Apr-21 13:27N 47°48' E 035°10'0 0.3
2017-Apr-21 12:57N 47°48' E 035°10'0 0.0
2017-Apr-21 12:30N 47°48' E 035°10'0 0.0
2017-Apr-21 12:00N 47°48' E 035°10'0 0.0
2017-Apr-21 11:30N 47°48' E 035°10'0 0.4
2017-Apr-21 11:00N 47°48' E 035°09'1 2.6
2017-Apr-21 10:30N 47°49' E 035°08'3 5.1
2017-Apr-21 10:00N 47°51' E 035°05'1 2.3
2017-Apr-21 09:30N 47°52' E 035°05'0 0.1
2017-Apr-21 09:00N 47°52' E 035°06'0 0.4
2017-Apr-21 08:30N 47°52' E 035°06'1 1.6
2017-Apr-21 08:00N 47°53' E 035°06'0 0.0
2017-Apr-21 07:30N 47°53' E 035°06'0 0.0
2017-Apr-21 07:00N 47°53' E 035°06'0 0.0
2017-Apr-21 06:30N 47°53' E 035°06'1 2.0
2017-Apr-21 06:00N 47°52' E 035°06'1 1.6
2017-Apr-21 05:30N 47°51' E 035°05'4 8.0
2017-Apr-21 05:00N 47°48' E 035°09'2 3.4
2017-Apr-21 04:30N 47°49' E 035°07'2 4.7
2017-Apr-21 04:00N 47°51' E 035°05'1 1.5
2017-Apr-21 03:31N 47°52' E 035°06'0 0.4
2017-Apr-21 02:58N 47°52' E 035°06'1 1.4
2017-Apr-21 02:25N 47°53' E 035°06'0 0.0
2017-Apr-21 01:55N 47°53' E 035°06'0 0.0
2017-Apr-21 01:19N 47°53' E 035°06'0 0.0
2017-Apr-21 00:49N 47°53' E 035°06'0 0.0
2017-Apr-21 00:25N 47°53' E 035°06'0 0.0
2017-Apr-20 23:55N 47°53' E 035°06'0 0.0
2017-Apr-20 23:25N 47°53' E 035°06'0 0.0
2017-Apr-20 22:49N 47°53' E 035°06'0 0.0
2017-Apr-20 22:25N 47°53' E 035°06'0 0.0
2017-Apr-20 21:55N 47°53' E 035°06'0 0.0
2017-Apr-20 21:25N 47°53' E 035°06'0 0.0
2017-Apr-20 20:55N 47°53' E 035°06'0 0.0
2017-Apr-20 20:07N 47°53' E 035°06'0 0.0
2017-Apr-20 19:55N 47°53' E 035°06'0 0.0
2017-Apr-20 19:13N 47°53' E 035°06'0 0.0
2017-Apr-20 18:49N 47°53' E 035°06'0 0.0
2017-Apr-20 18:25N 47°53' E 035°06'0 0.0
2017-Apr-20 17:55N 47°53' E 035°06'0 0.0
2017-Apr-20 17:25N 47°53' E 035°06'0 0.0
2017-Apr-20 16:55N 47°53' E 035°06'0 0.0
2017-Apr-20 16:25N 47°53' E 035°06'0 0.0
2017-Apr-20 15:55N 47°53' E 035°06'0 0.0
2017-Apr-20 15:25N 47°53' E 035°06'1 1.7
2017-Apr-20 15:01N 47°52' E 035°06'1 1.4
2017-Apr-20 14:30N 47°53' E 035°06'3 2.6
2017-Apr-20 13:30N 47°55' E 035°07'2 3.7
2017-Apr-20 13:00N 47°57' E 035°07'2 3.7
2017-Apr-20 12:30N 47°59' E 035°07'2 3.7
2017-Apr-20 12:00N 48°01' E 035°08'2 3.3
2017-Apr-20 11:30N 48°02' E 035°07'2 0.0
2017-Apr-18 17:45N 48°04' E 035°05'1 4.7
2017-Apr-18 17:30N 48°03' E 035°07'2 4.5
2017-Apr-18 17:00N 48°01' E 035°08'2 4.8
2017-Apr-18 16:30N 47°58' E 035°08'2 4.9
2017-Apr-18 16:01N 47°56' E 035°07'3 5.1
2017-Apr-18 15:30N 47°53' E 035°06'1 1.2
2017-Apr-18 15:00N 47°53' E 035°06'0 0.1
2017-Apr-18 14:31N 47°53' E 035°06'1 1.0
2017-Apr-18 13:30N 47°52' E 035°05'0 0.5
2017-Apr-18 13:00N 47°52' E 035°05'3 5.4
2017-Apr-18 12:30N 47°49' E 035°08'1 3.0
2017-Apr-18 12:00N 47°48' E 035°09'4 7.3
2017-Apr-18 11:30N 47°51' E 035°05'1 2.0
2017-Apr-18 11:00N 47°52' E 035°05'1 1.4
2017-Apr-18 10:30N 47°52' E 035°06'1 1.2
2017-Apr-18 09:55N 47°52' E 035°05'0 0.5
2017-Apr-18 09:30N 47°52' E 035°05'2 4.4
2017-Apr-18 09:00N 47°50' E 035°07'2 4.0
2017-Apr-18 08:29N 47°48' E 035°09'0 0.0
2017-Apr-18 07:59N 47°48' E 035°09'0 0.0
2017-Apr-18 07:29N 47°48' E 035°09'0 0.0
2017-Apr-18 06:59N 47°48' E 035°09'0 0.0
2017-Apr-18 06:29N 47°48' E 035°09'0 0.0
2017-Apr-18 05:59N 47°48' E 035°09'0 0.0
2017-Apr-18 05:23N 47°48' E 035°09'0 0.0
2017-Apr-18 04:53N 47°48' E 035°09'0 0.0
2017-Apr-18 04:29N 47°48' E 035°09'0 0.0
2017-Apr-18 03:59N 47°48' E 035°09'0 0.0
2017-Apr-18 03:29N 47°48' E 035°09'0 0.0
2017-Apr-18 02:59N 47°48' E 035°09'0 0.1
2017-Apr-18 02:31N 47°48' E 035°09'0 0.5
2017-Apr-18 01:57N 47°48' E 035°10'0 0.0
2017-Apr-18 01:27N 47°48' E 035°10'0 0.0
2017-Apr-18 00:57N 47°48' E 035°10'0 0.0
2017-Apr-18 00:27N 47°48' E 035°10'0 0.0
2017-Apr-17 23:57N 47°48' E 035°10'0 0.0
2017-Apr-17 23:27N 47°48' E 035°10'0 0.0
2017-Apr-17 22:57N 47°48' E 035°10'0 0.0
2017-Apr-17 22:27N 47°48' E 035°10'0 0.0
2017-Apr-17 21:57N 47°48' E 035°10'0 0.0
2017-Apr-17 21:27N 47°48' E 035°10'0 0.0
2017-Apr-17 20:57N 47°48' E 035°10'0 0.0
2017-Apr-17 20:27N 47°48' E 035°10'0 0.0
2017-Apr-17 19:57N 47°48' E 035°10'0 0.0
2017-Apr-17 19:27N 47°48' E 035°10'0 0.0
2017-Apr-17 18:57N 47°48' E 035°10'0 0.0
2017-Apr-17 18:27N 47°48' E 035°10'0 0.0
2017-Apr-17 17:57N 47°48' E 035°10'0 0.0
2017-Apr-17 17:27N 47°48' E 035°10'0 0.0
2017-Apr-17 16:57N 47°48' E 035°10'0 0.0
2017-Apr-17 16:27N 47°48' E 035°10'0 0.5
2017-Apr-17 15:55N 47°48' E 035°09'0 0.0
2017-Apr-17 15:25N 47°48' E 035°09'0 0.0
2017-Apr-17 14:55N 47°48' E 035°09'0 0.1
2017-Apr-17 14:25N 47°48' E 035°09'1 1.0
2017-Apr-17 13:30N 47°48' E 035°10'2 4.7
2017-Apr-17 13:00N 47°45' E 035°10'2 4.6
2017-Apr-17 12:30N 47°43' E 035°09'2 4.8
2017-Apr-17 12:00N 47°41' E 035°08'2 4.9
2017-Apr-17 11:30N 47°39' E 035°06'3 5.0
2017-Apr-17 11:01N 47°37' E 035°03'3 5.1
2017-Apr-17 10:30N 47°35' E 035°02'7 5.0
2017-Apr-17 09:07N 47°33' E 034°52'1 5.0
2017-Apr-17 09:00N 47°32' E 034°51'3 5.1
2017-Apr-17 08:30N 47°31' E 034°48'11 5.0
2017-Apr-17 06:18N 47°35' E 034°32'2 5.1
2017-Apr-17 06:00N 47°35' E 034°30'3 5.1
2017-Apr-17 05:24N 47°33' E 034°26'5 4.8
2017-Apr-17 04:18N 47°32' E 034°18'97 4.0
2017-Apr-16 04:10N 46°33' E 032°25'1 4.8
2017-Apr-16 04:00N 46°33' E 032°24'4 4.4
2017-Apr-16 03:10N 46°33' E 032°18'4 4.4
2017-Apr-16 02:12N 46°33' E 032°12'3 4.7
2017-Apr-16 01:36N 46°32' E 032°08'1 4.0
2017-Apr-16 01:21N 46°32' E 032°07'1 2.6
2017-Apr-16 00:58N 46°32' E 032°05'2 3.6
2017-Apr-16 00:27N 46°32' E 032°03'2 4.7
2017-Apr-16 00:00N 46°33' E 031°60'2 4.7
2017-Apr-15 23:30N 46°34' E 031°56'2 4.7
2017-Apr-15 23:00N 46°34' E 031°53'3 5.0
2017-Apr-15 22:26N 46°35' E 031°49'2 5.1
2017-Apr-15 22:00N 46°35' E 031°46'3 5.4
2017-Apr-15 21:29N 46°35' E 031°42'4 5.5
2017-Apr-15 20:49N 46°36' E 031°37'1 4.4
2017-Apr-15 20:31N 46°36' E 031°35'0 0.1
2017-Apr-15 20:00N 46°37' E 031°35'0 0.8
2017-Apr-15 19:30N 46°36' E 031°36'1 1.3
2017-Apr-15 19:00N 46°36' E 031°35'2 4.4
2017-Apr-15 18:31N 46°35' E 031°32'3 5.6
2017-Apr-15 18:00N 46°36' E 031°29'3 6.4
2017-Apr-15 17:30N 46°35' E 031°24'6 0.4
2017-Apr-15 02:21N 46°35' E 031°32'3 4.3
2017-Apr-15 01:43N 46°37' E 031°35'5 3.2
2017-Apr-15 00:15N 46°35' E 031°42'1 4.1
2017-Apr-14 23:59N 46°35' E 031°43'2 4.0
2017-Apr-14 23:29N 46°36' E 031°46'2 3.9
2017-Apr-14 23:00N 46°36' E 031°49'2 3.8
2017-Apr-14 22:30N 46°37' E 031°51'2 3.6
2017-Apr-14 22:00N 46°37' E 031°54'2 3.5
2017-Apr-14 21:30N 46°39' E 031°55'2 3.4
2017-Apr-14 21:01N 46°40' E 031°56'2 3.7
2017-Apr-14 20:30N 46°42' E 031°56'2 3.3
2017-Apr-14 20:00N 46°44' E 031°56'2 3.5
2017-Apr-14 19:30N 46°45' E 031°54'2 3.6
2017-Apr-14 19:00N 46°47' E 031°53'2 3.6
2017-Apr-14 18:30N 46°48' E 031°54'2 3.6
2017-Apr-14 18:00N 46°50' E 031°55'2 3.7
2017-Apr-14 17:30N 46°51' E 031°57'2 3.6
2017-Apr-14 17:00N 46°53' E 031°59'2 3.7
2017-Apr-14 16:30N 46°54' E 032°00'2 3.5
2017-Apr-14 16:00N 46°56' E 032°01'2 3.6
2017-Apr-14 15:30N 46°57' E 031°59'0 0.1
2017-Apr-14 14:58N 46°57' E 031°59'0 0.0
2017-Apr-14 14:28N 46°57' E 031°59'0 0.2
2017-Apr-14 13:28N 46°57' E 031°59'0 0.0
2017-Apr-14 12:58N 46°57' E 031°59'0 0.0
2017-Apr-14 12:28N 46°57' E 031°59'0 0.0
2017-Apr-14 11:58N 46°57' E 031°59'0 0.0
2017-Apr-14 11:28N 46°57' E 031°59'0 0.0
2017-Apr-14 10:58N 46°57' E 031°59'0 0.0
2017-Apr-14 10:28N 46°57' E 031°59'0 0.0
2017-Apr-14 09:55N 46°57' E 031°59'0 0.0
2017-Apr-14 09:28N 46°57' E 031°59'0 0.0
2017-Apr-14 09:01N 46°57' E 031°59'0 0.0
2017-Apr-14 08:31N 46°57' E 031°59'0 0.4
2017-Apr-14 08:01N 46°56' E 031°59'2 3.7
2017-Apr-14 07:30N 46°55' E 032°01'3 5.5
2017-Apr-14 07:01N 46°53' E 031°60'3 5.7
2017-Apr-14 06:31N 46°51' E 031°57'3 5.8
2017-Apr-14 06:00N 46°49' E 031°54'3 5.5
2017-Apr-14 05:31N 46°46' E 031°53'3 5.2
2017-Apr-14 05:01N 46°44' E 031°56'2 4.8
2017-Apr-14 04:30N 46°41' E 031°56'2 4.9
2017-Apr-14 04:00N 46°39' E 031°56'3 5.2
2017-Apr-14 03:31N 46°37' E 031°53'3 5.3
2017-Apr-14 03:00N 46°36' E 031°50'3 5.0
2017-Apr-14 02:28N 46°36' E 031°46'2 5.0
2017-Apr-14 01:59N 46°35' E 031°42'2 4.9
2017-Apr-14 01:29N 46°35' E 031°39'2 4.2
2017-Apr-14 00:55N 46°36' E 031°36'0 0.1
2017-Apr-14 00:15N 46°36' E 031°36'  

Dump ship's entire track history